Hampton, VA (23666)

9:51 AM EDT on May 30, 2015 (GMT -0400)
Nelson Farms | | Change Station
CLOSE
Current Station
Personal Weather Station
Location: Hampton, VA
Elevation: 23 ft
Nearby Weather Stations

Elev 23 ft 37.07 °N, 76.42 °W | Updated 16 seconds ago

Partly Cloudy
Partly Cloudy
81.1 °F
Feels Like 85 °F
N
2.7
Wind Variable Wind from SW
Gusts 5.8 mph

Today
High -- | Low -- °F
--% Chance of Precip.
Yesterday
High -- | Low -- °F
Precip. -- in
5:48 AM 8:18 PM
Waxing Gibbous, 90% visible
Pressure 30.25 in
Visibility 8.0 miles
Clouds Scattered Clouds 1800 ft
Mostly Cloudy 4000 ft
Heat Index 85 °F
Dew Point 70 °F
Humidity 69%
Rainfall 0.00 in
Snow Depth Not available.
UV 2 out of 12
Pollen 6.00 out of 12
Air Quality Not available.
Flu Activity Sporadic
METAR KLFI 301258Z AUTO 22008KT 8SM SCT018 BKN040 25/20 A3023 RMK AO2 SLP244

More Conditions Fewer Conditions

Pressure 30.25 in
Visibility 8.0 miles
Clouds Scattered Clouds 1800 ft
Mostly Cloudy 4000 ft
Heat Index 85 °F
Dew Point 70 °F
Humidity 69%
Rainfall 0.00 in
Snow Depth Not available.
UV 2 out of 12
Pollen 6.00 out of 12
Air Quality Not available.
Flu Activity Sporadic
METAR KLFI 301258Z AUTO 22008KT 8SM SCT018 BKN040 25/20 A3023 RMK AO2 SLP244

More Conditions Fewer Conditions

10-Day Weather Forecast

Almanac

Astronomy

May. 30, 2015 Rise Set
Actual Time
Civil Twilight
Nautical Twilight
Astronomical Twilight
Moon
Length of Visible Light
Length of Day
Tomorrow will be .
, % of the Moon is Illuminated

Today's Extremes

State Highs State Lows

Community

WunderPhotos

Upload Photos

1,825,510 photos uploaded!

WunderBlogs® & News

Nearby

Air Quality

  Air Quality AQ Index Pollutant
Not available.

Snow Depth

Station Depth Elevation

Earthquake Activity

City Distance Mag. Time & Date
Minimum magnitude displayed is 2.5.

Coastal Water Temperatures

Place Temperature

Stations

Nearby Weather Stations

Station Location Temp. Windchill Dew Point Humidity Wind Precip. Elev Updated Type